This is the latest recevied weather packets stored in our database for station/object AB4BJ-10. If no packets are shown the sender has not sent any weather packets the latest 10 day(s).
| Time | Temp. | Humidity | Pressure | Rain* | Wind** | Luminosity | Snow |
|---|---|---|---|---|---|---|---|
| 1787771730 | 30.56° C | 57% | 1012 hPa | 0 mm | - | - | - |
| 1787771135 | 31.11° C | 55% | 1012.1 hPa | 0 mm | - | - | - |
| 1787770830 | 31.11° C | 55% | 1012.1 hPa | 0 mm | - | - | - |
| 1787770530 | 31.11° C | 56% | 1012.3 hPa | 0 mm | - | - | - |
| 1787770229 | 31.11° C | 55% | 1012.3 hPa | 0 mm | - | - | - |
| 1787769934 | 31.67° C | 55% | 1012.4 hPa | 0 mm | - | - | - |
| 1787769384 | 31.11° C | 56% | 1012.6 hPa | 0 mm | - | - | - |
| 1787769329 | 31.11° C | 56% | 1012.6 hPa | 0 mm | - | - | - |
| 1787768729 | 30.56° C | 58% | 1012.8 hPa | 0 mm | - | - | - |
| 1787767826 | 30° C | 60% | 1013.1 hPa | 0 mm | - | - | - |
| 1787767225 | 30° C | 61% | 1013.3 hPa | 0 mm | - | - | - |
| 1787766624 | 29.44° C | 63% | 1013.6 hPa | 0 mm | - | - | - |
| 1787766024 | 29.44° C | 61% | 1013.6 hPa | 0 mm | - | - | - |
| 1787765724 | 29.44° C | 61% | 1013.7 hPa | 0 mm | - | - | - |
| 1787765687 | 29.44° C | 60% | 1013.7 hPa | 0 mm | - | - | - |
| 1787765424 | 29.44° C | 60% | 1013.7 hPa | 0 mm | - | - | - |
| 1787765123 | 29.44° C | 59% | 1013.8 hPa | 0 mm | - | - | - |
| 1787764872 | 29.44° C | 59% | 1013.8 hPa | 0 mm | - | - | - |
| 1787764823 | 29.44° C | 59% | 1013.8 hPa | 0 mm | - | - | - |
| 1787764523 | 29.44° C | 61% | 1013.8 hPa | 0 mm | - | - | - |
* Rain latest hour (hover to see other rain measurements)
** Current wind speed in m/s (hover to see current wind gust speed)